sensor_id;sensor_type;location;lat;lon;timestamp;P1;durP1;ratioP1;P2;durP2;ratioP2
56181;SDS011;51963;46.052;14.544;2022-10-23T00:01:33;20.45;;;9.48;;
56181;SDS011;51963;46.052;14.544;2022-10-23T00:04:02;21.00;;;10.15;;
56181;SDS011;51963;46.052;14.544;2022-10-23T00:06:33;19.27;;;9.57;;
56181;SDS011;51963;46.052;14.544;2022-10-23T00:08:59;28.25;;;11.27;;
56181;SDS011;51963;46.052;14.544;2022-10-23T00:11:26;37.47;;;11.68;;
56181;SDS011;51963;46.052;14.544;2022-10-23T00:13:53;24.63;;;10.93;;
56181;SDS011;51963;46.052;14.544;2022-10-23T00:16:21;34.17;;;11.23;;
56181;SDS011;51963;46.052;14.544;2022-10-23T00:18:46;34.28;;;11.85;;
56181;SDS011;51963;46.052;14.544;2022-10-23T00:21:13;20.70;;;10.30;;
56181;SDS011;51963;46.052;14.544;2022-10-23T00:23:45;24.13;;;11.32;;
56181;SDS011;51963;46.052;14.544;2022-10-23T00:26:11;26.42;;;10.18;;
56181;SDS011;51963;46.052;14.544;2022-10-23T00:28:42;19.65;;;9.50;;
56181;SDS011;51963;46.052;14.544;2022-10-23T00:31:08;25.52;;;12.30;;
56181;SDS011;51963;46.052;14.544;2022-10-23T00:33:34;21.98;;;10.63;;
56181;SDS011;51963;46.052;14.544;2022-10-23T00:36:02;23.48;;;10.90;;
56181;SDS011;51963;46.052;14.544;2022-10-23T00:38:29;25.52;;;10.55;;
56181;SDS011;51963;46.052;14.544;2022-10-23T00:40:55;22.45;;;10.43;;
56181;SDS011;51963;46.052;14.544;2022-10-23T00:43:22;21.42;;;10.55;;
56181;SDS011;51963;46.052;14.544;2022-10-23T00:45:50;18.25;;;9.93;;
56181;SDS011;51963;46.052;14.544;2022-10-23T00:48:16;19.23;;;9.27;;
56181;SDS011;51963;46.052;14.544;2022-10-23T00:50:43;17.98;;;9.35;;
56181;SDS011;51963;46.052;14.544;2022-10-23T00:53:11;17.17;;;8.77;;
56181;SDS011;51963;46.052;14.544;2022-10-23T00:55:37;15.65;;;7.97;;
56181;SDS011;51963;46.052;14.544;2022-10-23T00:58:10;15.45;;;7.57;;
56181;SDS011;51963;46.052;14.544;2022-10-23T01:00:41;12.85;;;7.40;;
56181;SDS011;51963;46.052;14.544;2022-10-23T01:03:07;13.52;;;8.05;;
56181;SDS011;51963;46.052;14.544;2022-10-23T01:05:37;12.10;;;7.03;;
56181;SDS011;51963;46.052;14.544;2022-10-23T01:08:34;11.77;;;6.35;;
56181;SDS011;51963;46.052;14.544;2022-10-23T01:11:14;15.00;;;7.57;;
56181;SDS011;51963;46.052;14.544;2022-10-23T01:16:19;12.80;;;7.25;;
56181;SDS011;51963;46.052;14.544;2022-10-23T01:27:26;13.07;;;6.93;;
56181;SDS011;51963;46.052;14.544;2022-10-23T01:35:15;10.85;;;6.47;;
56181;SDS011;51963;46.052;14.544;2022-10-23T01:38:47;12.45;;;6.47;;
56181;SDS011;51963;46.052;14.544;2022-10-23T01:41:00;12.75;;;6.53;;
56181;SDS011;51963;46.052;14.544;2022-10-23T01:43:34;12.75;;;6.75;;
56181;SDS011;51963;46.052;14.544;2022-10-23T01:46:09;16.80;;;8.35;;
56181;SDS011;51963;46.052;14.544;2022-10-23T01:48:38;17.23;;;9.02;;
56181;SDS011;51963;46.052;14.544;2022-10-23T01:51:08;16.77;;;8.90;;
56181;SDS011;51963;46.052;14.544;2022-10-23T01:53:38;15.70;;;9.10;;
56181;SDS011;51963;46.052;14.544;2022-10-23T01:56:11;16.23;;;8.38;;
56181;SDS011;51963;46.052;14.544;2022-10-23T01:58:41;14.55;;;8.25;;
56181;SDS011;51963;46.052;14.544;2022-10-23T02:01:10;16.13;;;8.65;;
56181;SDS011;51963;46.052;14.544;2022-10-23T02:03:46;17.48;;;8.95;;
56181;SDS011;51963;46.052;14.544;2022-10-23T02:06:13;20.48;;;9.85;;
56181;SDS011;51963;46.052;14.544;2022-10-23T02:08:39;19.70;;;9.68;;
56181;SDS011;51963;46.052;14.544;2022-10-23T02:11:06;23.60;;;12.30;;
56181;SDS011;51963;46.052;14.544;2022-10-23T02:13:41;20.30;;;10.77;;
56181;SDS011;51963;46.052;14.544;2022-10-23T02:30:18;18.85;;;9.07;;
56181;SDS011;51963;46.052;14.544;2022-10-23T02:33:05;17.70;;;8.93;;
56181;SDS011;51963;46.052;14.544;2022-10-23T02:35:33;17.75;;;9.27;;
56181;SDS011;51963;46.052;14.544;2022-10-23T02:40:57;16.50;;;8.45;;
56181;SDS011;51963;46.052;14.544;2022-10-23T02:43:36;16.65;;;8.50;;
56181;SDS011;51963;46.052;14.544;2022-10-23T02:46:11;17.48;;;8.60;;
56181;SDS011;51963;46.052;14.544;2022-10-23T02:48:47;15.07;;;7.20;;
56181;SDS011;51963;46.052;14.544;2022-10-23T02:51:30;13.75;;;7.53;;
56181;SDS011;51963;46.052;14.544;2022-10-23T02:54:41;12.70;;;7.07;;
56181;SDS011;51963;46.052;14.544;2022-10-23T03:00:00;14.30;;;7.22;;
56181;SDS011;51963;46.052;14.544;2022-10-23T03:02:57;15.73;;;8.60;;
56181;SDS011;51963;46.052;14.544;2022-10-23T03:05:32;16.55;;;8.13;;
56181;SDS011;51963;46.052;14.544;2022-10-23T03:08:04;15.00;;;7.47;;
56181;SDS011;51963;46.052;14.544;2022-10-23T03:10:32;15.50;;;8.38;;
56181;SDS011;51963;46.052;14.544;2022-10-23T03:12:58;16.65;;;8.68;;
56181;SDS011;51963;46.052;14.544;2022-10-23T03:15:25;18.52;;;9.77;;
56181;SDS011;51963;46.052;14.544;2022-10-23T03:17:51;22.60;;;9.75;;
56181;SDS011;51963;46.052;14.544;2022-10-23T03:20:17;17.67;;;9.20;;
56181;SDS011;51963;46.052;14.544;2022-10-23T03:22:43;15.70;;;8.50;;
56181;SDS011;51963;46.052;14.544;2022-10-23T03:25:09;19.75;;;9.35;;
56181;SDS011;51963;46.052;14.544;2022-10-23T03:27:35;18.42;;;8.98;;
56181;SDS011;51963;46.052;14.544;2022-10-23T03:30:04;15.90;;;8.80;;
56181;SDS011;51963;46.052;14.544;2022-10-23T03:34:58;18.80;;;8.82;;
56181;SDS011;51963;46.052;14.544;2022-10-23T03:37:24;16.58;;;8.38;;
56181;SDS011;51963;46.052;14.544;2022-10-23T03:39:54;18.90;;;9.32;;
56181;SDS011;51963;46.052;14.544;2022-10-23T03:42:20;17.35;;;9.18;;
56181;SDS011;51963;46.052;14.544;2022-10-23T03:44:46;16.95;;;8.52;;
56181;SDS011;51963;46.052;14.544;2022-10-23T03:47:12;18.52;;;8.95;;
56181;SDS011;51963;46.052;14.544;2022-10-23T03:49:38;18.38;;;8.27;;
56181;SDS011;51963;46.052;14.544;2022-10-23T03:52:05;14.18;;;8.23;;
56181;SDS011;51963;46.052;14.544;2022-10-23T03:54:32;14.18;;;7.15;;
56181;SDS011;51963;46.052;14.544;2022-10-23T03:56:58;12.65;;;6.70;;
56181;SDS011;51963;46.052;14.544;2022-10-23T03:59:25;12.13;;;7.05;;
56181;SDS011;51963;46.052;14.544;2022-10-23T04:01:52;13.15;;;7.53;;
56181;SDS011;51963;46.052;14.544;2022-10-23T04:04:18;16.00;;;8.23;;
56181;SDS011;51963;46.052;14.544;2022-10-23T04:06:43;16.10;;;8.38;;
56181;SDS011;51963;46.052;14.544;2022-10-23T04:09:09;13.52;;;6.97;;
56181;SDS011;51963;46.052;14.544;2022-10-23T04:11:35;13.38;;;7.60;;
56181;SDS011;51963;46.052;14.544;2022-10-23T04:14:01;12.88;;;6.53;;
56181;SDS011;51963;46.052;14.544;2022-10-23T04:16:27;10.38;;;5.93;;
56181;SDS011;51963;46.052;14.544;2022-10-23T04:18:53;13.07;;;7.13;;
56181;SDS011;51963;46.052;14.544;2022-10-23T04:21:19;10.95;;;6.78;;
56181;SDS011;51963;46.052;14.544;2022-10-23T04:23:44;14.43;;;7.43;;
56181;SDS011;51963;46.052;14.544;2022-10-23T04:26:13;10.57;;;6.28;;
56181;SDS011;51963;46.052;14.544;2022-10-23T04:28:38;10.15;;;5.90;;
56181;SDS011;51963;46.052;14.544;2022-10-23T04:31:04;11.00;;;6.03;;
56181;SDS011;51963;46.052;14.544;2022-10-23T04:33:30;10.55;;;5.60;;
56181;SDS011;51963;46.052;14.544;2022-10-23T04:35:56;9.88;;;5.35;;
56181;SDS011;51963;46.052;14.544;2022-10-23T04:38:22;10.82;;;5.60;;
56181;SDS011;51963;46.052;14.544;2022-10-23T04:40:48;13.25;;;6.70;;
56181;SDS011;51963;46.052;14.544;2022-10-23T04:43:19;17.02;;;6.30;;
56181;SDS011;51963;46.052;14.544;2022-10-23T04:45:44;10.95;;;5.63;;
56181;SDS011;51963;46.052;14.544;2022-10-23T04:48:10;10.73;;;6.55;;
56181;SDS011;51963;46.052;14.544;2022-10-23T04:51:05;9.48;;;5.50;;
56181;SDS011;51963;46.052;14.544;2022-10-23T04:53:49;9.32;;;5.63;;
56181;SDS011;51963;46.052;14.544;2022-10-23T04:56:44;12.45;;;6.60;;
56181;SDS011;51963;46.052;14.544;2022-10-23T04:59:16;10.15;;;6.13;;
56181;SDS011;51963;46.052;14.544;2022-10-23T05:01:42;11.75;;;5.82;;
56181;SDS011;51963;46.052;14.544;2022-10-23T05:04:08;14.32;;;7.10;;
56181;SDS011;51963;46.052;14.544;2022-10-23T05:06:52;11.95;;;6.35;;
56181;SDS011;51963;46.052;14.544;2022-10-23T05:09:44;14.27;;;6.60;;
56181;SDS011;51963;46.052;14.544;2022-10-23T05:12:19;12.60;;;6.50;;
56181;SDS011;51963;46.052;14.544;2022-10-23T05:14:46;12.63;;;6.30;;
56181;SDS011;51963;46.052;14.544;2022-10-23T05:17:14;11.95;;;6.10;;
56181;SDS011;51963;46.052;14.544;2022-10-23T05:19:47;12.60;;;6.95;;
56181;SDS011;51963;46.052;14.544;2022-10-23T05:22:23;13.80;;;6.88;;
56181;SDS011;51963;46.052;14.544;2022-10-23T05:24:52;16.63;;;7.13;;
56181;SDS011;51963;46.052;14.544;2022-10-23T05:27:21;15.38;;;5.95;;
56181;SDS011;51963;46.052;14.544;2022-10-23T05:29:49;10.15;;;5.38;;
56181;SDS011;51963;46.052;14.544;2022-10-23T05:32:18;11.13;;;5.68;;
56181;SDS011;51963;46.052;14.544;2022-10-23T05:34:44;13.18;;;6.10;;
56181;SDS011;51963;46.052;14.544;2022-10-23T05:37:11;14.57;;;5.60;;
56181;SDS011;51963;46.052;14.544;2022-10-23T05:39:39;13.48;;;5.40;;
56181;SDS011;51963;46.052;14.544;2022-10-23T05:42:10;11.80;;;5.53;;
56181;SDS011;51963;46.052;14.544;2022-10-23T05:44:36;10.57;;;4.93;;
56181;SDS011;51963;46.052;14.544;2022-10-23T05:47:37;11.45;;;5.15;;
56181;SDS011;51963;46.052;14.544;2022-10-23T05:53:10;11.68;;;5.28;;
56181;SDS011;51963;46.052;14.544;2022-10-23T05:55:48;11.60;;;6.30;;
56181;SDS011;51963;46.052;14.544;2022-10-23T05:58:45;13.75;;;6.68;;
56181;SDS011;51963;46.052;14.544;2022-10-23T06:01:44;12.35;;;6.55;;
56181;SDS011;51963;46.052;14.544;2022-10-23T06:04:15;11.48;;;5.97;;
56181;SDS011;51963;46.052;14.544;2022-10-23T06:07:01;10.10;;;5.18;;
56181;SDS011;51963;46.052;14.544;2022-10-23T06:09:28;10.45;;;5.50;;
56181;SDS011;51963;46.052;14.544;2022-10-23T06:11:56;11.43;;;5.70;;
56181;SDS011;51963;46.052;14.544;2022-10-23T06:14:25;11.13;;;5.55;;
56181;SDS011;51963;46.052;14.544;2022-10-23T06:16:52;11.50;;;5.68;;
56181;SDS011;51963;46.052;14.544;2022-10-23T06:19:19;12.35;;;6.32;;
56181;SDS011;51963;46.052;14.544;2022-10-23T06:21:52;12.50;;;5.90;;
56181;SDS011;51963;46.052;14.544;2022-10-23T06:24:22;11.68;;;5.60;;
56181;SDS011;51963;46.052;14.544;2022-10-23T06:26:56;11.63;;;6.30;;
56181;SDS011;51963;46.052;14.544;2022-10-23T06:29:41;10.93;;;5.80;;
56181;SDS011;51963;46.052;14.544;2022-10-23T06:32:08;11.85;;;5.55;;
56181;SDS011;51963;46.052;14.544;2022-10-23T06:34:34;10.85;;;5.45;;
56181;SDS011;51963;46.052;14.544;2022-10-23T06:37:01;10.27;;;5.50;;
56181;SDS011;51963;46.052;14.544;2022-10-23T06:39:34;11.98;;;5.40;;
56181;SDS011;51963;46.052;14.544;2022-10-23T06:42:12;12.60;;;6.60;;
56181;SDS011;51963;46.052;14.544;2022-10-23T06:44:53;13.20;;;6.45;;
56181;SDS011;51963;46.052;14.544;2022-10-23T06:47:41;15.20;;;7.65;;
56181;SDS011;51963;46.052;14.544;2022-10-23T06:50:33;16.42;;;7.63;;
56181;SDS011;51963;46.052;14.544;2022-10-23T06:53:04;17.63;;;7.90;;
56181;SDS011;51963;46.052;14.544;2022-10-23T06:55:31;19.45;;;7.88;;
56181;SDS011;51963;46.052;14.544;2022-10-23T06:57:57;15.98;;;7.88;;
56181;SDS011;51963;46.052;14.544;2022-10-23T07:00:23;17.48;;;7.57;;
56181;SDS011;51963;46.052;14.544;2022-10-23T07:02:51;15.02;;;6.75;;
56181;SDS011;51963;46.052;14.544;2022-10-23T07:05:18;14.50;;;6.65;;
56181;SDS011;51963;46.052;14.544;2022-10-23T07:07:44;14.43;;;6.30;;
56181;SDS011;51963;46.052;14.544;2022-10-23T07:10:14;15.93;;;7.00;;
56181;SDS011;51963;46.052;14.544;2022-10-23T07:12:50;16.10;;;6.55;;
56181;SDS011;51963;46.052;14.544;2022-10-23T07:15:35;16.50;;;6.88;;
56181;SDS011;51963;46.052;14.544;2022-10-23T07:18:22;17.52;;;6.70;;
56181;SDS011;51963;46.052;14.544;2022-10-23T07:21:11;21.48;;;7.22;;
56181;SDS011;51963;46.052;14.544;2022-10-23T07:23:39;16.35;;;6.45;;
56181;SDS011;51963;46.052;14.544;2022-10-23T07:26:15;16.67;;;6.57;;
56181;SDS011;51963;46.052;14.544;2022-10-23T07:28:46;17.15;;;7.20;;
56181;SDS011;51963;46.052;14.544;2022-10-23T07:31:17;17.38;;;6.80;;
56181;SDS011;51963;46.052;14.544;2022-10-23T07:34:04;14.80;;;6.88;;
56181;SDS011;51963;46.052;14.544;2022-10-23T07:36:31;13.15;;;6.15;;
56181;SDS011;51963;46.052;14.544;2022-10-23T07:38:56;12.77;;;5.68;;
56181;SDS011;51963;46.052;14.544;2022-10-23T07:41:23;11.38;;;4.72;;
56181;SDS011;51963;46.052;14.544;2022-10-23T07:43:49;9.38;;;4.50;;
56181;SDS011;51963;46.052;14.544;2022-10-23T07:46:15;10.27;;;5.25;;
56181;SDS011;51963;46.052;14.544;2022-10-23T07:48:42;14.00;;;4.65;;
56181;SDS011;51963;46.052;14.544;2022-10-23T07:51:10;12.38;;;5.30;;
56181;SDS011;51963;46.052;14.544;2022-10-23T07:53:42;11.18;;;5.80;;
56181;SDS011;51963;46.052;14.544;2022-10-23T07:56:37;9.63;;;5.03;;
56181;SDS011;51963;46.052;14.544;2022-10-23T07:59:25;7.57;;;4.55;;
56181;SDS011;51963;46.052;14.544;2022-10-23T08:01:53;10.75;;;5.30;;
56181;SDS011;51963;46.052;14.544;2022-10-23T08:04:22;9.98;;;4.82;;
56181;SDS011;51963;46.052;14.544;2022-10-23T08:06:58;12.45;;;5.18;;
56181;SDS011;51963;46.052;14.544;2022-10-23T08:09:27;9.45;;;5.13;;
56181;SDS011;51963;46.052;14.544;2022-10-23T08:11:54;9.30;;;5.38;;
56181;SDS011;51963;46.052;14.544;2022-10-23T08:16:48;9.13;;;4.85;;
56181;SDS011;51963;46.052;14.544;2022-10-23T08:19:14;12.07;;;5.25;;
56181;SDS011;51963;46.052;14.544;2022-10-23T08:21:41;8.93;;;4.47;;
56181;SDS011;51963;46.052;14.544;2022-10-23T08:24:11;7.53;;;4.68;;
56181;SDS011;51963;46.052;14.544;2022-10-23T08:26:42;11.95;;;5.53;;
56181;SDS011;51963;46.052;14.544;2022-10-23T08:29:08;9.88;;;5.65;;
56181;SDS011;51963;46.052;14.544;2022-10-23T08:31:34;10.27;;;5.43;;
56181;SDS011;51963;46.052;14.544;2022-10-23T08:34:20;10.00;;;6.03;;
56181;SDS011;51963;46.052;14.544;2022-10-23T08:36:49;10.10;;;5.45;;
56181;SDS011;51963;46.052;14.544;2022-10-23T08:39:14;13.05;;;5.15;;
56181;SDS011;51963;46.052;14.544;2022-10-23T08:41:53;7.45;;;4.80;;
56181;SDS011;51963;46.052;14.544;2022-10-23T08:47:16;8.85;;;5.00;;
56181;SDS011;51963;46.052;14.544;2022-10-23T08:55:44;9.02;;;4.63;;
56181;SDS011;51963;46.052;14.544;2022-10-23T09:00:45;8.98;;;5.05;;
56181;SDS011;51963;46.052;14.544;2022-10-23T09:03:12;8.32;;;5.15;;
56181;SDS011;51963;46.052;14.544;2022-10-23T09:11:37;6.93;;;4.03;;
56181;SDS011;51963;46.052;14.544;2022-10-23T09:14:29;7.13;;;4.35;;
56181;SDS011;51963;46.052;14.544;2022-10-23T09:19:36;8.48;;;4.20;;
56181;SDS011;51963;46.052;14.544;2022-10-23T09:22:03;10.25;;;4.90;;
56181;SDS011;51963;46.052;14.544;2022-10-23T09:24:30;8.10;;;5.38;;
56181;SDS011;51963;46.052;14.544;2022-10-23T09:26:57;11.57;;;5.00;;
56181;SDS011;51963;46.052;14.544;2022-10-23T09:29:34;9.40;;;5.37;;
56181;SDS011;51963;46.052;14.544;2022-10-23T09:32:03;9.90;;;5.15;;
56181;SDS011;51963;46.052;14.544;2022-10-23T09:34:32;9.20;;;4.57;;
56181;SDS011;51963;46.052;14.544;2022-10-23T09:37:00;8.98;;;4.25;;
56181;SDS011;51963;46.052;14.544;2022-10-23T09:39:34;7.53;;;4.88;;
56181;SDS011;51963;46.052;14.544;2022-10-23T09:42:11;8.32;;;4.97;;
56181;SDS011;51963;46.052;14.544;2022-10-23T09:44:48;6.90;;;3.92;;
56181;SDS011;51963;46.052;14.544;2022-10-23T09:47:17;7.35;;;3.90;;
56181;SDS011;51963;46.052;14.544;2022-10-23T09:49:46;7.00;;;3.88;;
56181;SDS011;51963;46.052;14.544;2022-10-23T09:54:54;6.13;;;2.55;;
56181;SDS011;51963;46.052;14.544;2022-10-23T10:00:33;4.90;;;2.53;;
56181;SDS011;51963;46.052;14.544;2022-10-23T10:03:17;6.70;;;2.63;;
56181;SDS011;51963;46.052;14.544;2022-10-23T10:08:27;5.87;;;2.97;;
56181;SDS011;51963;46.052;14.544;2022-10-23T10:16:40;4.35;;;2.97;;
56181;SDS011;51963;46.052;14.544;2022-10-23T10:25:22;4.57;;;2.45;;
56181;SDS011;51963;46.052;14.544;2022-10-23T10:30:12;19.42;;;8.70;;
56181;SDS011;51963;46.052;14.544;2022-10-23T10:38:24;6.85;;;2.47;;
56181;SDS011;51963;46.052;14.544;2022-10-23T10:51:37;4.72;;;2.85;;
56181;SDS011;51963;46.052;14.544;2022-10-23T10:56:55;6.00;;;3.10;;
56181;SDS011;51963;46.052;14.544;2022-10-23T10:59:28;5.15;;;3.40;;
56181;SDS011;51963;46.052;14.544;2022-10-23T11:05:01;8.73;;;4.63;;
56181;SDS011;51963;46.052;14.544;2022-10-23T11:07:38;6.95;;;4.85;;
56181;SDS011;51963;46.052;14.544;2022-10-23T11:10:12;11.10;;;5.80;;
56181;SDS011;51963;46.052;14.544;2022-10-23T11:12:41;8.32;;;5.47;;
56181;SDS011;51963;46.052;14.544;2022-10-23T11:15:15;8.75;;;5.03;;
56181;SDS011;51963;46.052;14.544;2022-10-23T11:17:48;7.80;;;4.97;;
56181;SDS011;51963;46.052;14.544;2022-10-23T11:28:32;9.70;;;5.75;;
56181;SDS011;51963;46.052;14.544;2022-10-23T11:34:53;8.55;;;5.72;;
56181;SDS011;51963;46.052;14.544;2022-10-23T11:36:58;10.07;;;5.38;;
56181;SDS011;51963;46.052;14.544;2022-10-23T11:39:26;7.82;;;5.32;;
56181;SDS011;51963;46.052;14.544;2022-10-23T11:42:45;7.72;;;5.63;;
56181;SDS011;51963;46.052;14.544;2022-10-23T11:44:58;6.45;;;4.60;;
56181;SDS011;51963;46.052;14.544;2022-10-23T11:52:39;5.53;;;4.47;;
56181;SDS011;51963;46.052;14.544;2022-10-23T11:55:19;5.25;;;3.75;;
56181;SDS011;51963;46.052;14.544;2022-10-23T12:00:32;8.25;;;4.35;;
56181;SDS011;51963;46.052;14.544;2022-10-23T12:03:00;6.65;;;4.40;;
56181;SDS011;51963;46.052;14.544;2022-10-23T12:07:59;9.23;;;5.43;;
56181;SDS011;51963;46.052;14.544;2022-10-23T12:10:30;6.57;;;4.53;;
56181;SDS011;51963;46.052;14.544;2022-10-23T12:13:31;7.20;;;5.03;;
56181;SDS011;51963;46.052;14.544;2022-10-23T12:16:09;8.13;;;5.95;;
56181;SDS011;51963;46.052;14.544;2022-10-23T12:18:53;7.68;;;5.10;;
56181;SDS011;51963;46.052;14.544;2022-10-23T12:21:25;10.77;;;5.50;;
56181;SDS011;51963;46.052;14.544;2022-10-23T12:32:22;5.85;;;3.90;;
56181;SDS011;51963;46.052;14.544;2022-10-23T12:40:23;5.03;;;3.28;;
56181;SDS011;51963;46.052;14.544;2022-10-23T12:42:54;9.20;;;4.20;;
56181;SDS011;51963;46.052;14.544;2022-10-23T12:45:29;6.95;;;4.28;;
56181;SDS011;51963;46.052;14.544;2022-10-23T12:47:59;5.20;;;3.63;;
56181;SDS011;51963;46.052;14.544;2022-10-23T12:50:29;8.52;;;3.95;;
56181;SDS011;51963;46.052;14.544;2022-10-23T12:52:58;5.43;;;3.80;;
56181;SDS011;51963;46.052;14.544;2022-10-23T12:55:27;8.38;;;5.10;;
56181;SDS011;51963;46.052;14.544;2022-10-23T12:57:55;7.15;;;4.13;;
56181;SDS011;51963;46.052;14.544;2022-10-23T13:00:23;6.35;;;4.22;;
56181;SDS011;51963;46.052;14.544;2022-10-23T13:02:59;7.23;;;4.47;;
56181;SDS011;51963;46.052;14.544;2022-10-23T13:05:26;6.57;;;3.93;;
56181;SDS011;51963;46.052;14.544;2022-10-23T13:07:53;5.82;;;4.15;;
56181;SDS011;51963;46.052;14.544;2022-10-23T13:10:32;5.85;;;3.20;;
56181;SDS011;51963;46.052;14.544;2022-10-23T13:13:03;5.63;;;2.80;;
56181;SDS011;51963;46.052;14.544;2022-10-23T13:15:38;6.03;;;3.20;;
56181;SDS011;51963;46.052;14.544;2022-10-23T13:18:09;9.63;;;3.40;;
56181;SDS011;51963;46.052;14.544;2022-10-23T13:20:56;4.32;;;3.35;;
56181;SDS011;51963;46.052;14.544;2022-10-23T13:23:25;5.68;;;3.53;;
56181;SDS011;51963;46.052;14.544;2022-10-23T13:25:58;5.10;;;3.92;;
56181;SDS011;51963;46.052;14.544;2022-10-23T13:28:42;6.00;;;4.07;;
56181;SDS011;51963;46.052;14.544;2022-10-23T13:33:36;7.93;;;4.28;;
56181;SDS011;51963;46.052;14.544;2022-10-23T13:36:05;4.45;;;3.95;;
56181;SDS011;51963;46.052;14.544;2022-10-23T13:38:35;5.45;;;3.83;;
56181;SDS011;51963;46.052;14.544;2022-10-23T13:41:12;8.13;;;4.30;;
56181;SDS011;51963;46.052;14.544;2022-10-23T13:43:40;5.95;;;4.20;;
56181;SDS011;51963;46.052;14.544;2022-10-23T13:46:18;12.88;;;6.20;;
56181;SDS011;51963;46.052;14.544;2022-10-23T13:48:45;9.10;;;4.70;;
56181;SDS011;51963;46.052;14.544;2022-10-23T13:53:38;13.45;;;4.55;;
56181;SDS011;51963;46.052;14.544;2022-10-23T13:56:04;9.77;;;6.07;;
56181;SDS011;51963;46.052;14.544;2022-10-23T13:58:31;6.65;;;4.80;;
56181;SDS011;51963;46.052;14.544;2022-10-23T14:00:57;9.40;;;4.93;;
56181;SDS011;51963;46.052;14.544;2022-10-23T14:03:23;9.60;;;4.78;;
56181;SDS011;51963;46.052;14.544;2022-10-23T14:05:49;9.52;;;4.65;;
56181;SDS011;51963;46.052;14.544;2022-10-23T14:08:16;7.90;;;5.20;;
56181;SDS011;51963;46.052;14.544;2022-10-23T14:10:41;8.07;;;4.50;;
56181;SDS011;51963;46.052;14.544;2022-10-23T14:13:07;7.35;;;4.65;;
56181;SDS011;51963;46.052;14.544;2022-10-23T14:15:33;8.18;;;4.70;;
56181;SDS011;51963;46.052;14.544;2022-10-23T14:17:59;10.98;;;5.20;;
56181;SDS011;51963;46.052;14.544;2022-10-23T14:20:25;9.75;;;5.20;;
56181;SDS011;51963;46.052;14.544;2022-10-23T14:22:51;14.52;;;7.63;;
56181;SDS011;51963;46.052;14.544;2022-10-23T14:25:17;10.57;;;6.50;;
56181;SDS011;51963;46.052;14.544;2022-10-23T14:27:43;7.50;;;5.35;;
56181;SDS011;51963;46.052;14.544;2022-10-23T14:30:09;9.23;;;6.43;;
56181;SDS011;51963;46.052;14.544;2022-10-23T14:32:35;10.82;;;6.55;;
56181;SDS011;51963;46.052;14.544;2022-10-23T14:35:01;10.98;;;6.30;;
56181;SDS011;51963;46.052;14.544;2022-10-23T14:37:28;10.20;;;5.00;;
56181;SDS011;51963;46.052;14.544;2022-10-23T14:39:55;11.23;;;5.63;;
56181;SDS011;51963;46.052;14.544;2022-10-23T14:42:21;12.32;;;5.30;;
56181;SDS011;51963;46.052;14.544;2022-10-23T14:44:48;10.73;;;5.63;;
56181;SDS011;51963;46.052;14.544;2022-10-23T14:47:14;10.73;;;5.57;;
56181;SDS011;51963;46.052;14.544;2022-10-23T14:49:41;8.57;;;5.25;;
56181;SDS011;51963;46.052;14.544;2022-10-23T14:52:08;8.35;;;5.28;;
56181;SDS011;51963;46.052;14.544;2022-10-23T14:54:34;7.95;;;6.03;;
56181;SDS011;51963;46.052;14.544;2022-10-23T14:57:01;9.70;;;5.72;;
56181;SDS011;51963;46.052;14.544;2022-10-23T14:59:27;7.55;;;5.68;;
56181;SDS011;51963;46.052;14.544;2022-10-23T15:01:52;11.43;;;5.93;;
56181;SDS011;51963;46.052;14.544;2022-10-23T15:04:19;11.52;;;6.32;;
56181;SDS011;51963;46.052;14.544;2022-10-23T15:06:45;10.55;;;5.93;;
56181;SDS011;51963;46.052;14.544;2022-10-23T15:09:11;9.68;;;5.68;;
56181;SDS011;51963;46.052;14.544;2022-10-23T15:11:38;10.00;;;5.78;;
56181;SDS011;51963;46.052;14.544;2022-10-23T15:14:03;9.90;;;6.18;;
56181;SDS011;51963;46.052;14.544;2022-10-23T15:16:29;8.35;;;5.40;;
56181;SDS011;51963;46.052;14.544;2022-10-23T15:18:55;10.63;;;6.10;;
56181;SDS011;51963;46.052;14.544;2022-10-23T15:21:21;8.98;;;6.00;;
56181;SDS011;51963;46.052;14.544;2022-10-23T15:23:47;10.35;;;6.60;;
56181;SDS011;51963;46.052;14.544;2022-10-23T15:26:15;12.90;;;7.60;;
56181;SDS011;51963;46.052;14.544;2022-10-23T15:28:56;13.90;;;8.30;;
56181;SDS011;51963;46.052;14.544;2022-10-23T15:33:58;11.50;;;8.10;;
56181;SDS011;51963;46.052;14.544;2022-10-23T15:36:24;13.93;;;7.95;;
56181;SDS011;51963;46.052;14.544;2022-10-23T15:38:51;12.13;;;7.85;;
56181;SDS011;51963;46.052;14.544;2022-10-23T15:41:19;12.57;;;7.88;;
56181;SDS011;51963;46.052;14.544;2022-10-23T15:43:51;13.00;;;7.95;;
56181;SDS011;51963;46.052;14.544;2022-10-23T15:46:17;12.30;;;7.55;;
56181;SDS011;51963;46.052;14.544;2022-10-23T15:48:43;13.85;;;7.10;;
56181;SDS011;51963;46.052;14.544;2022-10-23T15:51:08;14.52;;;6.85;;
56181;SDS011;51963;46.052;14.544;2022-10-23T15:53:34;10.00;;;6.65;;
56181;SDS011;51963;46.052;14.544;2022-10-23T15:56:00;12.90;;;6.80;;
56181;SDS011;51963;46.052;14.544;2022-10-23T15:58:25;11.10;;;6.78;;
56181;SDS011;51963;46.052;14.544;2022-10-23T16:00:51;10.65;;;6.32;;
56181;SDS011;51963;46.052;14.544;2022-10-23T16:03:17;10.30;;;6.13;;
56181;SDS011;51963;46.052;14.544;2022-10-23T16:05:43;13.15;;;6.63;;
56181;SDS011;51963;46.052;14.544;2022-10-23T16:08:09;13.25;;;6.75;;
56181;SDS011;51963;46.052;14.544;2022-10-23T16:10:41;10.90;;;6.47;;
56181;SDS011;51963;46.052;14.544;2022-10-23T16:13:07;11.13;;;5.97;;
56181;SDS011;51963;46.052;14.544;2022-10-23T16:15:34;9.02;;;5.90;;
56181;SDS011;51963;46.052;14.544;2022-10-23T16:18:00;10.95;;;6.45;;
56181;SDS011;51963;46.052;14.544;2022-10-23T16:20:26;10.98;;;6.57;;
56181;SDS011;51963;46.052;14.544;2022-10-23T16:22:52;11.32;;;6.38;;
56181;SDS011;51963;46.052;14.544;2022-10-23T16:25:19;9.60;;;6.15;;
56181;SDS011;51963;46.052;14.544;2022-10-23T16:27:45;10.50;;;6.63;;
56181;SDS011;51963;46.052;14.544;2022-10-23T16:30:11;12.00;;;6.95;;
56181;SDS011;51963;46.052;14.544;2022-10-23T16:32:39;15.35;;;9.32;;
56181;SDS011;51963;46.052;14.544;2022-10-23T16:35:05;32.22;;;19.25;;
56181;SDS011;51963;46.052;14.544;2022-10-23T16:37:41;12.80;;;8.50;;
56181;SDS011;51963;46.052;14.544;2022-10-23T16:40:12;11.80;;;7.75;;
56181;SDS011;51963;46.052;14.544;2022-10-23T16:42:57;12.55;;;7.60;;
56181;SDS011;51963;46.052;14.544;2022-10-23T16:45:39;10.55;;;7.22;;
56181;SDS011;51963;46.052;14.544;2022-10-23T16:48:05;14.70;;;7.93;;
56181;SDS011;51963;46.052;14.544;2022-10-23T16:50:31;11.50;;;7.43;;
56181;SDS011;51963;46.052;14.544;2022-10-23T16:52:57;13.13;;;7.70;;
56181;SDS011;51963;46.052;14.544;2022-10-23T16:55:22;11.15;;;7.38;;
56181;SDS011;51963;46.052;14.544;2022-10-23T16:57:48;10.85;;;7.80;;
56181;SDS011;51963;46.052;14.544;2022-10-23T17:00:14;11.80;;;7.45;;
56181;SDS011;51963;46.052;14.544;2022-10-23T17:02:40;12.05;;;7.57;;
56181;SDS011;51963;46.052;14.544;2022-10-23T17:05:06;13.35;;;6.90;;
56181;SDS011;51963;46.052;14.544;2022-10-23T17:07:32;12.93;;;7.18;;
56181;SDS011;51963;46.052;14.544;2022-10-23T17:09:57;10.38;;;7.15;;
56181;SDS011;51963;46.052;14.544;2022-10-23T17:12:23;14.55;;;7.03;;
56181;SDS011;51963;46.052;14.544;2022-10-23T17:14:49;10.82;;;7.72;;
56181;SDS011;51963;46.052;14.544;2022-10-23T17:17:14;15.55;;;8.23;;
56181;SDS011;51963;46.052;14.544;2022-10-23T17:19:40;16.52;;;8.93;;